Etusivu
METAR-TAF:

METAR-TAF

Lentoasemat :

Montgomery, Alabama, Yhdysvallat

Leveyspiiri: 32-23N, Pituuspiiri: 086-22W, korkeus merenpinnasta: 51 m

Tämänhetkinen sää

Tämä raportti tehtiin 56 minuuttia sitten, kello 06.56 UTC
tyyntä
Lämpötila 19°C
Kosteus 73%
Ilmanpaine 1013 hPa
Näkyvyys: 16.1 km
Muutamia pilviä 11000 ft:n korkeudessa

METAR: KMXF 050656Z AUTO 00000KT 10SM FEW110 19/14 A2992 RMK AO2 SLP133 T01850140

Aika: 02:52 (07:52 UTC)

Sääennuste

Tämä raportti tehtiin 12 tuntia ja 52 minuuttia sitten, kello 19.00 UTC
Ennuste voimassa 03. päivästä klo 19 UTC - 05. päivään klo 01 UTC
Tuuli 6 kn eri suunnista
Näkyvyys: 0611 m
Muutamia pilviä 13000 ft:n korkeudessa

TAF: KMXF 031900Z 0319/0501 VRB06KT 9999 FEW130 QNH2994INS TX27/0321Z TN10/0408Z LAST NO AMDS AFT 0323 NEXT 0611

Säähavainnot ja -ennusteet yli 4000 lentoasemalta (METAR- ja TAF-raportit).

Käytössä olevat sääasemat on merkitty karttaan keltaisilla ja punaisilla pisteillä.

Aseta hiiri pisteen päälle nähdäksesi sääaseman nimen.

Klikkaa sitten nähdäksesi säähavainnot ja -ennusteet.

Kartan vaihtaminen: klikkaa mustalla rastilla varustettuja vihreitä pisteitä, niin voit zoomata sisään; viivalla varustettua vihreää pistettä, niin voit zoomata ulos tai vihreitä nuolia, niin pääset viereisille kartoille.


METAR-TAF: